SBIH

Itaituba Airport

Itaituba, Brazil
TAF SBIH 221000Z 2212/2224 09004KT 8000 NSC TN26/2211Z TX35/2217Z BECMG 2212/2214 09007KT 9999 SCT022 BECMG 2217/2218 07008KT SCT025 BECMG 2221/2223 CAVOK RMK PFM
Issued Valid From Valid To
Sep-22 @ 10:00 UTC
(5 hours ago)
Sep-22 @ 12:00 UTC
(3 hours ago)
Sep-23 @ 00:00 UTC
(in 9 hours)
to
to
to
to
TAF SBIH 221000Z 2212/2224 09004KT 8000 NSC TN26/2211Z TX35/2217Z BECMG 2212/2214 09007KT 9999 SCT022 BECMG 2217/2218 07008KT SCT025 BECMG 2221/2223 CAVOK RMK PFM
Issued Sep-22 @ 10:00 UTC
(5 hours ago)
Valid From Sep-22 @ 12:00 UTC
(3 hours ago)
Valid To Sep-23 @ 00:00 UTC
(in 9 hours)
-
-
-
-